createdAt,value
2019-05-10T00:00:18.305Z,10.73
2019-05-10T00:03:05.518Z,10.60
2019-05-10T00:05:52.429Z,11.93
2019-05-10T00:08:39.788Z,12.53
2019-05-10T00:11:34.563Z,9.07
2019-05-10T00:14:13.988Z,9.67
2019-05-10T00:16:43.787Z,11.60
2019-05-10T00:19:13.700Z,9.20
2019-05-10T00:21:42.955Z,11.03
2019-05-10T00:24:12.526Z,16.00
2019-05-10T00:26:41.867Z,15.90
2019-05-10T00:29:11.112Z,12.63
2019-05-10T00:31:40.544Z,12.03
2019-05-10T00:34:10.702Z,11.17
2019-05-10T00:36:40.263Z,13.93
2019-05-10T00:39:09.502Z,13.97
2019-05-10T00:41:39.095Z,12.13
2019-05-10T00:44:08.256Z,13.07
2019-05-10T00:46:37.425Z,15.57
2019-05-10T00:49:06.586Z,13.37
2019-05-10T00:51:36.135Z,12.20
2019-05-10T00:54:05.382Z,11.67
2019-05-10T00:56:34.615Z,9.67
2019-05-10T00:59:04.063Z,12.50
2019-05-10T01:01:33.387Z,12.03
2019-05-10T01:04:02.661Z,13.07
2019-05-10T01:06:31.889Z,14.40
2019-05-10T01:09:01.402Z,12.60
2019-05-10T01:11:30.984Z,13.30
2019-05-10T01:14:00.145Z,12.60
2019-05-10T01:16:29.309Z,13.13
2019-05-10T01:18:58.477Z,13.30
2019-05-10T01:21:28.103Z,16.63
2019-05-10T01:23:57.715Z,13.20
2019-05-10T01:26:26.949Z,11.90
2019-05-10T01:28:56.137Z,15.93
2019-05-10T01:31:25.601Z,14.27
2019-05-10T01:33:54.887Z,15.37
2019-05-10T01:36:24.778Z,12.53
2019-05-10T01:38:54.323Z,13.53
2019-05-10T01:41:23.509Z,12.80
2019-05-10T01:43:52.676Z,14.43
2019-05-10T01:46:22.257Z,15.07
2019-05-10T01:48:51.435Z,14.47
2019-05-10T01:51:20.660Z,14.57
2019-05-10T01:53:50.149Z,11.93
2019-05-10T01:56:19.291Z,14.13
2019-05-10T01:58:48.469Z,13.83
2019-05-10T02:01:17.709Z,13.10
2019-05-10T02:03:46.920Z,12.23
2019-05-10T02:06:16.085Z,15.37
2019-05-10T02:08:45.303Z,12.90
2019-05-10T02:11:14.925Z,15.40
2019-05-10T02:13:44.095Z,13.20
2019-05-10T02:16:13.339Z,13.20
2019-05-10T02:18:42.596Z,12.70
2019-05-10T02:21:12.168Z,12.30
2019-05-10T02:23:41.336Z,13.00
2019-05-10T02:26:10.596Z,12.37
2019-05-10T02:28:40.280Z,14.73
2019-05-10T02:31:09.994Z,11.73
2019-05-10T02:33:39.249Z,10.83
2019-05-10T02:36:08.493Z,13.07
2019-05-10T02:38:37.779Z,14.90
2019-05-10T02:41:07.555Z,14.33
2019-05-10T02:43:36.795Z,17.70
2019-05-10T02:46:06.055Z,14.83
2019-05-10T02:48:35.317Z,10.57
2019-05-10T02:51:04.906Z,13.27
2019-05-10T02:53:34.376Z,16.20
2019-05-10T02:56:04.212Z,13.83
2019-05-10T02:58:34.254Z,15.77
2019-05-10T03:01:05.805Z,16.47
2019-05-10T03:03:38.495Z,15.50
2019-05-10T03:06:08.406Z,15.33
2019-05-10T03:08:50.844Z,21.07
2019-05-10T03:11:20.750Z,17.83
2019-05-10T03:13:52.100Z,22.73
2019-05-10T03:16:23.341Z,18.07
2019-05-10T03:18:53.787Z,21.17
2019-05-10T03:21:24.095Z,19.07
2019-05-10T03:23:54.006Z,17.90
2019-05-10T03:26:23.243Z,17.23
2019-05-10T03:28:52.525Z,15.73
2019-05-10T03:31:22.128Z,18.60
2019-05-10T03:33:56.273Z,18.63
2019-05-10T03:36:22.654Z,17.53
2019-05-10T03:38:52.070Z,25.60
2019-05-10T03:41:21.761Z,19.13
2019-05-10T03:43:51.391Z,16.90
2019-05-10T03:46:20.632Z,21.20
2019-05-10T03:48:50.276Z,23.93
2019-05-10T03:51:19.519Z,18.07
2019-05-10T03:53:48.869Z,22.73
2019-05-10T03:56:18.398Z,15.73
2019-05-10T03:58:47.715Z,18.10
2019-05-10T04:01:17.377Z,22.57
2019-05-10T04:03:46.558Z,23.13
2019-05-10T04:06:15.802Z,23.13
2019-05-10T04:08:45.075Z,25.83
2019-05-10T04:11:14.227Z,30.13
2019-05-10T04:13:43.466Z,27.17
2019-05-10T04:16:12.809Z,24.20
2019-05-10T04:18:41.978Z,30.37
2019-05-10T04:21:11.321Z,35.43
2019-05-10T04:23:40.923Z,32.13
2019-05-10T04:26:10.531Z,28.47
2019-05-10T04:28:39.780Z,27.67
2019-05-10T04:31:09.045Z,28.27
2019-05-10T04:33:38.561Z,31.67
2019-05-10T04:36:12.429Z,27.80
2019-05-10T04:38:39.002Z,29.00
2019-05-10T04:41:08.277Z,32.73
2019-05-10T04:43:37.807Z,27.40
2019-05-10T04:46:07.045Z,28.57
2019-05-10T04:48:36.500Z,29.50
2019-05-10T04:51:06.109Z,31.93
2019-05-10T04:53:35.401Z,27.83
2019-05-10T04:56:05.284Z,30.03
2019-05-10T04:58:34.527Z,26.97
2019-05-10T05:01:04.115Z,32.03
2019-05-10T05:03:33.284Z,28.07
2019-05-10T05:06:02.834Z,23.40
2019-05-10T05:08:32.335Z,25.30
2019-05-10T05:11:01.607Z,26.30
2019-05-10T05:13:31.195Z,26.00
2019-05-10T05:16:00.378Z,26.93
2019-05-10T05:18:29.777Z,25.80
2019-05-10T05:20:59.384Z,28.43
2019-05-10T05:23:28.885Z,28.43
2019-05-10T05:25:58.483Z,27.87
2019-05-10T05:28:27.818Z,26.80
2019-05-10T05:30:56.982Z,33.73
2019-05-10T05:33:26.256Z,30.33
2019-05-10T05:35:55.522Z,29.33
2019-05-10T05:38:24.823Z,29.37
2019-05-10T05:40:54.070Z,28.73
2019-05-10T05:43:23.495Z,26.23
2019-05-10T05:45:52.772Z,33.50
2019-05-10T05:48:23.087Z,33.30
2019-05-10T05:50:53.317Z,33.03
2019-05-10T05:53:22.802Z,29.13
2019-05-10T05:55:52.050Z,30.73
2019-05-10T05:58:26.864Z,26.00
2019-05-10T06:00:52.229Z,31.93
2019-05-10T06:03:27.583Z,26.43
2019-05-10T06:05:52.729Z,34.93
2019-05-10T06:08:24.822Z,27.67
2019-05-10T06:10:57.718Z,32.00
2019-05-10T06:13:30.147Z,26.47
2019-05-10T06:16:00.119Z,26.57
2019-05-10T06:18:27.835Z,33.67
2019-05-10T06:20:57.050Z,36.97
2019-05-10T06:23:29.035Z,28.83
2019-05-10T06:25:57.851Z,22.67
2019-05-10T06:28:55.191Z,24.13
2019-05-10T06:30:58.436Z,21.13
2019-05-10T06:33:28.775Z,22.97
2019-05-10T06:35:58.138Z,20.30
2019-05-10T06:38:27.414Z,23.03
2019-05-10T06:40:56.682Z,17.13
2019-05-10T06:43:26.056Z,14.10
2019-05-10T06:45:55.881Z,19.10
2019-05-10T06:48:29.598Z,20.73
2019-05-10T06:50:57.158Z,15.33
2019-05-10T06:53:26.372Z,15.73
2019-05-10T06:55:55.684Z,15.60
2019-05-10T06:58:25.264Z,14.23
2019-05-10T07:00:54.796Z,12.80
2019-05-10T07:03:24.068Z,14.70
2019-05-10T07:05:53.264Z,14.10
2019-05-10T07:08:22.908Z,15.73
2019-05-10T07:10:52.406Z,17.93
2019-05-10T07:13:21.721Z,22.37
2019-05-10T07:15:51.149Z,28.60
2019-05-10T07:18:22.668Z,24.07
2019-05-10T07:20:51.548Z,23.53
2019-05-10T07:23:20.933Z,22.33
2019-05-10T07:25:50.130Z,20.00
2019-05-10T07:28:19.409Z,25.53
2019-05-10T07:30:48.817Z,16.63
2019-05-10T07:33:18.024Z,11.00
2019-05-10T07:35:48.636Z,16.97
2019-05-10T07:38:23.500Z,13.63
2019-05-10T07:40:49.202Z,9.33
2019-05-10T07:43:26.332Z,13.17
2019-05-10T07:45:50.427Z,15.47
2019-05-10T07:48:23.048Z,9.30
2019-05-10T07:50:51.982Z,5.97
2019-05-10T07:53:22.990Z,5.10
2019-05-10T07:55:52.249Z,8.53
2019-05-10T07:58:21.494Z,6.93
2019-05-10T08:00:51.155Z,7.53
2019-05-10T08:03:23.626Z,6.23
2019-05-10T08:05:56.934Z,6.10
2019-05-10T08:08:24.547Z,7.13
2019-05-10T08:10:54.383Z,11.57
2019-05-10T08:13:25.284Z,6.23
2019-05-10T08:15:55.015Z,7.17
2019-05-10T08:18:25.537Z,6.87
2019-05-10T08:21:01.980Z,6.23
2019-05-10T08:23:28.007Z,7.50
2019-05-10T08:25:57.425Z,11.07
2019-05-10T08:28:27.835Z,9.53
2019-05-10T08:30:59.095Z,7.17
2019-05-10T08:33:28.349Z,5.13
2019-05-10T08:36:00.545Z,6.83
2019-05-10T08:38:28.491Z,6.83
2019-05-10T08:40:57.693Z,6.03
2019-05-10T08:43:30.743Z,5.03
2019-05-10T08:45:58.428Z,4.10
2019-05-10T08:48:28.037Z,4.43
2019-05-10T08:51:02.034Z,6.33
2019-05-10T08:53:28.547Z,7.53
2019-05-10T08:55:58.962Z,7.30
2019-05-10T08:58:36.773Z,5.53
2019-05-10T09:01:14.628Z,5.50
2019-05-10T09:03:32.166Z,4.63
2019-05-10T09:06:05.380Z,5.20
2019-05-10T09:08:34.761Z,6.33
2019-05-10T09:11:06.661Z,5.93
2019-05-10T09:13:40.842Z,8.07
2019-05-10T09:16:06.465Z,6.80
2019-05-10T09:18:38.081Z,6.37
2019-05-10T09:21:08.861Z,6.03
2019-05-10T09:23:38.161Z,6.67
2019-05-10T09:26:10.095Z,7.20
2019-05-10T09:28:39.152Z,4.30
2019-05-10T09:31:18.785Z,3.77
2019-05-10T09:33:43.399Z,6.30
2019-05-10T09:36:12.491Z,6.33
2019-05-10T09:38:44.181Z,4.90
2019-05-10T09:41:13.174Z,4.90
2019-05-10T09:43:48.353Z,3.63
2019-05-10T09:46:14.112Z,3.63
2019-05-10T09:48:45.056Z,4.00
2019-05-10T09:51:19.220Z,6.73
2019-05-10T09:53:48.563Z,4.70
2019-05-10T09:56:17.369Z,5.30
2019-05-10T09:58:48.183Z,5.27
2019-05-10T10:01:21.475Z,5.07
2019-05-10T10:03:49.181Z,6.43
2019-05-10T10:06:18.714Z,4.83
2019-05-10T10:08:51.927Z,3.90
2019-05-10T10:11:19.621Z,3.80
2019-05-10T10:13:57.114Z,3.03
2019-05-10T10:16:20.157Z,3.47
2019-05-10T10:18:49.356Z,3.00
2019-05-10T10:21:30.598Z,2.90
2019-05-10T10:23:50.321Z,3.47
2019-05-10T10:26:22.293Z,3.20
2019-05-10T10:28:55.303Z,3.03
2019-05-10T10:31:29.636Z,3.20
2019-05-10T10:33:58.232Z,2.90
2019-05-10T10:36:23.789Z,4.60
2019-05-10T10:38:53.002Z,4.80
2019-05-10T10:41:27.185Z,3.67
2019-05-10T10:43:53.622Z,4.33
2019-05-10T10:46:22.958Z,4.80
2019-05-10T10:48:52.280Z,5.63
2019-05-10T10:51:21.508Z,4.93
2019-05-10T10:53:54.127Z,5.23
2019-05-10T10:56:22.114Z,6.63
2019-05-10T10:58:51.372Z,6.50
2019-05-10T11:01:25.410Z,6.00
2019-05-10T11:03:51.932Z,5.37
2019-05-10T11:06:21.248Z,9.03
2019-05-10T11:08:51.858Z,9.00
2019-05-10T11:11:21.243Z,6.13
2019-05-10T11:13:58.770Z,6.50
2019-05-10T11:16:21.465Z,7.63
2019-05-10T11:18:51.953Z,6.80
2019-05-10T11:21:23.331Z,7.33
2019-05-10T11:23:52.257Z,8.03
2019-05-10T11:26:26.740Z,7.17
2019-05-10T11:28:53.328Z,9.30
2019-05-10T11:31:22.594Z,7.40
2019-05-10T11:33:53.826Z,8.37
2019-05-10T11:36:22.832Z,7.03
2019-05-10T11:38:58.307Z,7.40
2019-05-10T11:41:24.653Z,8.43
2019-05-10T11:43:58.063Z,9.77
2019-05-10T11:46:27.930Z,9.07
2019-05-10T11:48:56.577Z,8.50
2019-05-10T11:51:25.767Z,8.60
2019-05-10T11:53:59.522Z,10.77
2019-05-10T11:56:27.818Z,10.20
2019-05-10T11:58:57.373Z,9.20
2019-05-10T12:01:26.606Z,9.73
2019-05-10T12:03:55.874Z,10.17
2019-05-10T12:06:25.465Z,11.93
2019-05-10T12:09:01.207Z,11.03
2019-05-10T12:11:33.314Z,9.40
2019-05-10T12:13:57.480Z,9.57
2019-05-10T12:16:27.272Z,9.17
2019-05-10T12:19:14.998Z,8.57
2019-05-10T12:21:32.252Z,11.33
2019-05-10T12:24:10.593Z,9.10
2019-05-10T12:29:11.649Z,10.63
2019-05-10T12:31:33.035Z,8.30
2019-05-10T12:34:09.092Z,7.93
2019-05-10T12:36:33.471Z,7.57
2019-05-10T12:39:02.826Z,7.70
2019-05-10T12:41:31.987Z,8.03
2019-05-10T12:44:03.930Z,9.13
2019-05-10T12:46:32.165Z,6.80
2019-05-10T12:49:02.171Z,7.23
2019-05-10T12:51:32.401Z,6.87
2019-05-10T12:54:01.604Z,8.17
2019-05-10T12:56:34.799Z,7.47
2019-05-10T12:59:02.009Z,8.53
2019-05-10T13:01:33.133Z,8.60
2019-05-10T13:04:13.749Z,7.20
2019-05-10T13:06:34.090Z,8.50
2019-05-10T13:09:05.804Z,6.70
2019-05-10T13:11:35.683Z,8.17
2019-05-10T13:14:07.151Z,7.13
2019-05-10T13:16:36.539Z,6.20
2019-05-10T13:19:14.280Z,6.00
2019-05-10T13:21:41.892Z,6.73
2019-05-10T13:24:11.141Z,7.80
2019-05-10T13:26:40.865Z,7.00
2019-05-10T13:29:10.543Z,6.87
2019-05-10T13:31:42.871Z,7.47
2019-05-10T13:34:11.558Z,7.20
2019-05-10T13:36:41.367Z,9.03
2019-05-10T13:39:10.724Z,8.33
2019-05-10T13:41:40.247Z,8.13
2019-05-10T13:44:09.525Z,7.97
2019-05-10T13:46:39.066Z,9.43
2019-05-10T13:49:08.569Z,8.90
2019-05-10T13:51:38.067Z,8.50
2019-05-10T13:54:07.797Z,8.40
2019-05-10T13:56:37.142Z,8.50
2019-05-10T13:59:15.635Z,9.03
2019-05-10T14:01:38.299Z,9.57
2019-05-10T14:04:07.663Z,9.80
2019-05-10T14:06:37.301Z,9.50
2019-05-10T14:09:07.726Z,8.37
2019-05-10T14:11:40.548Z,9.87
2019-05-10T14:14:14.353Z,9.83
2019-05-10T14:16:39.737Z,10.07
2019-05-10T14:19:08.982Z,10.73
2019-05-10T14:21:38.228Z,10.03
2019-05-10T14:24:09.200Z,10.57
2019-05-10T14:26:38.410Z,11.80
2019-05-10T14:29:10.776Z,11.17
2019-05-10T14:31:38.731Z,10.03
2019-05-10T14:34:15.859Z,11.20
2019-05-10T14:36:40.923Z,11.27
2019-05-10T14:39:10.615Z,10.23
2019-05-10T14:41:40.214Z,12.00
2019-05-10T14:44:09.689Z,10.13
2019-05-10T14:46:39.378Z,9.87
2019-05-10T14:49:09.824Z,9.37
2019-05-10T14:51:56.601Z,8.90
2019-05-10T14:54:10.562Z,8.67
2019-05-10T14:56:39.936Z,10.33
2019-05-10T14:59:09.222Z,9.70
2019-05-10T15:01:42.874Z,10.00
2019-05-10T15:04:09.770Z,11.07
2019-05-10T15:06:39.144Z,11.17
2019-05-10T15:09:20.389Z,10.13
2019-05-10T15:11:41.065Z,10.07
2019-05-10T15:14:10.696Z,11.10
2019-05-10T15:16:40.086Z,11.10
2019-05-10T15:19:09.819Z,10.53
2019-05-10T15:21:39.202Z,10.20
2019-05-10T15:24:08.383Z,10.13
2019-05-10T15:26:43.996Z,11.47
2019-05-10T15:29:14.853Z,9.63
2019-05-10T15:31:40.178Z,10.40
2019-05-10T15:34:09.440Z,9.70
2019-05-10T15:36:38.704Z,10.67
2019-05-10T15:39:08.346Z,10.40
2019-05-10T15:41:37.660Z,11.00
2019-05-10T15:44:07.302Z,10.10
2019-05-10T15:46:41.885Z,10.60
2019-05-10T15:49:07.845Z,10.33
2019-05-10T15:51:37.314Z,9.70
2019-05-10T15:54:07.446Z,10.43
2019-05-10T15:56:41.594Z,10.70
2019-05-10T15:59:12.970Z,10.20
2019-05-10T16:01:39.587Z,9.53
2019-05-10T16:04:08.788Z,10.50
2019-05-10T16:06:39.419Z,8.53
2019-05-10T16:09:16.967Z,8.87
2019-05-10T16:11:40.843Z,8.87
2019-05-10T16:14:10.163Z,8.63
2019-05-10T16:16:39.760Z,7.73
2019-05-10T16:19:12.941Z,11.50
2019-05-10T16:21:40.117Z,8.80
2019-05-10T16:24:13.001Z,7.27
2019-05-10T16:26:41.059Z,7.70
2019-05-10T16:29:10.277Z,8.60
2019-05-10T16:31:40.362Z,7.73
2019-05-10T16:34:09.984Z,7.70
2019-05-10T16:36:39.661Z,8.27
2019-05-10T16:39:09.211Z,7.63
2019-05-10T16:41:38.494Z,9.23
2019-05-10T16:44:08.125Z,8.50
2019-05-10T16:46:37.366Z,8.80
2019-05-10T16:49:10.011Z,8.70
2019-05-10T16:51:42.321Z,7.90
2019-05-10T16:54:10.595Z,8.60
2019-05-10T16:56:40.168Z,8.00
2019-05-10T16:59:09.774Z,8.10
2019-05-10T17:01:39.043Z,7.80
2019-05-10T17:04:08.219Z,7.67
2019-05-10T17:06:40.536Z,8.27
2019-05-10T17:09:16.047Z,7.93
2019-05-10T17:11:41.410Z,7.90
2019-05-10T17:14:12.711Z,8.27
2019-05-10T17:16:41.586Z,7.70
2019-05-10T17:19:11.074Z,8.73
2019-05-10T17:21:40.300Z,8.93
2019-05-10T17:24:09.538Z,7.97
2019-05-10T17:26:38.900Z,7.43
2019-05-10T17:29:12.907Z,7.50
2019-05-10T17:31:39.688Z,7.53
2019-05-10T17:34:10.325Z,7.00
2019-05-10T17:36:39.631Z,6.67
2019-05-10T17:39:08.920Z,7.43
2019-05-10T17:41:38.198Z,7.30
2019-05-10T17:44:07.388Z,7.70
2019-05-10T17:46:36.644Z,6.93
2019-05-10T17:49:05.854Z,7.17
2019-05-10T17:51:35.662Z,8.23
2019-05-10T17:54:05.479Z,6.70
2019-05-10T17:56:38.869Z,7.57
2019-05-10T17:59:11.661Z,8.27
2019-05-10T18:01:36.786Z,6.73
2019-05-10T18:04:06.118Z,6.67
2019-05-10T18:06:35.638Z,7.50
2019-05-10T18:09:06.923Z,7.90
2019-05-10T18:11:36.778Z,6.63
2019-05-10T18:14:07.104Z,7.53
2019-05-10T18:16:36.480Z,8.03
2019-05-10T18:19:05.766Z,8.33
2019-05-10T18:21:35.088Z,7.73
2019-05-10T18:24:04.345Z,7.80
2019-05-10T18:26:34.227Z,8.10
2019-05-10T18:29:04.796Z,8.00
2019-05-10T18:31:33.988Z,8.27
2019-05-10T18:34:03.382Z,7.90
2019-05-10T18:36:50.512Z,8.20
2019-05-10T18:39:09.228Z,8.50
2019-05-10T18:41:41.393Z,8.60
2019-05-10T18:44:08.244Z,8.00
2019-05-10T18:46:37.481Z,9.40
2019-05-10T18:49:06.742Z,8.63
2019-05-10T18:51:36.472Z,9.27
2019-05-10T18:54:05.855Z,9.03
2019-05-10T18:56:35.347Z,9.10
2019-05-10T18:59:07.493Z,8.30
2019-05-10T19:01:38.622Z,9.87
2019-05-10T19:04:13.124Z,9.57
2019-05-10T19:06:37.818Z,9.67
2019-05-10T19:09:08.208Z,10.67
2019-05-10T19:11:38.930Z,9.90
2019-05-10T19:14:09.157Z,10.50
2019-05-10T19:16:38.710Z,11.13
2019-05-10T19:19:08.308Z,9.83
2019-05-10T19:21:38.211Z,11.17
2019-05-10T19:24:07.687Z,10.67
2019-05-10T19:26:36.950Z,11.53
2019-05-10T19:29:06.846Z,12.73
2019-05-10T19:31:38.186Z,12.20
2019-05-10T19:34:09.078Z,11.60
2019-05-10T19:36:38.951Z,10.60
2019-05-10T19:39:08.922Z,11.20
2019-05-10T19:41:38.292Z,10.30
2019-05-10T19:44:07.616Z,11.30
2019-05-10T19:46:39.696Z,11.03
2019-05-10T19:49:13.279Z,11.37
2019-05-10T19:51:42.162Z,11.90
2019-05-10T19:54:13.593Z,11.70
2019-05-10T19:56:42.182Z,12.57
2019-05-10T19:59:13.467Z,13.67
2019-05-10T20:01:45.082Z,11.63
2019-05-10T20:04:14.002Z,12.00
2019-05-10T20:06:43.980Z,11.70
2019-05-10T20:09:13.190Z,12.07
2019-05-10T20:11:42.507Z,12.93
2019-05-10T20:14:11.692Z,11.90
2019-05-10T20:16:52.165Z,12.67
2019-05-10T20:19:12.326Z,12.20
2019-05-10T20:21:42.080Z,12.33
2019-05-10T20:24:11.259Z,12.63
2019-05-10T20:26:40.521Z,12.60
2019-05-10T20:29:10.073Z,14.00
2019-05-10T20:31:39.707Z,12.33
2019-05-10T20:34:09.279Z,14.03
2019-05-10T20:36:38.464Z,12.90
2019-05-10T20:39:08.071Z,13.37
2019-05-10T20:41:37.405Z,13.07
2019-05-10T20:44:06.668Z,14.03
2019-05-10T20:46:35.953Z,12.57
2019-05-10T20:49:05.238Z,13.43
2019-05-10T20:51:34.595Z,14.47
2019-05-10T20:54:04.412Z,12.23
2019-05-10T20:56:34.132Z,12.63
2019-05-10T20:59:06.044Z,13.07
2019-05-10T21:01:35.628Z,12.67
2019-05-10T21:04:04.922Z,13.47
2019-05-10T21:06:34.513Z,13.77
2019-05-10T21:09:06.278Z,14.37
2019-05-10T21:11:35.846Z,14.90
2019-05-10T21:14:05.171Z,13.83
2019-05-10T21:16:34.524Z,13.20
2019-05-10T21:19:03.814Z,13.40
2019-05-10T21:21:33.006Z,14.07
2019-05-10T21:24:02.188Z,13.17
2019-05-10T21:26:31.544Z,14.60
2019-05-10T21:29:00.776Z,14.03
2019-05-10T21:31:30.353Z,14.63
2019-05-10T21:34:09.161Z,14.07
2019-05-10T21:36:31.515Z,14.97
2019-05-10T21:39:00.716Z,14.37
2019-05-10T21:41:30.288Z,13.83
2019-05-10T21:43:59.530Z,14.80
2019-05-10T21:46:28.820Z,14.33
2019-05-10T21:48:58.408Z,15.17
2019-05-10T21:51:27.663Z,15.33
2019-05-10T21:53:56.839Z,15.90
2019-05-10T21:56:26.094Z,15.50
2019-05-10T21:58:55.275Z,15.57
2019-05-10T22:01:24.765Z,15.47
2019-05-10T22:03:54.391Z,16.77
2019-05-10T22:06:23.638Z,17.57
2019-05-10T22:08:52.915Z,17.47
2019-05-10T22:11:22.160Z,17.27
2019-05-10T22:13:51.448Z,18.60
2019-05-10T22:16:20.741Z,18.50
2019-05-10T22:18:59.075Z,19.93
2019-05-10T22:21:28.440Z,19.80
2019-05-10T22:23:57.607Z,18.93
2019-05-10T22:26:27.019Z,21.23
2019-05-10T22:28:56.315Z,21.27
2019-05-10T22:31:25.799Z,22.50
2019-05-10T22:33:55.661Z,22.30
2019-05-10T22:36:24.903Z,23.27
2019-05-10T22:39:06.543Z,22.47
2019-05-10T22:41:25.683Z,22.53
2019-05-10T22:43:54.953Z,22.53
2019-05-10T22:46:24.658Z,22.17
2019-05-10T22:48:54.177Z,21.33
2019-05-10T22:51:23.359Z,20.90
2019-05-10T22:53:59.717Z,21.80
2019-05-10T22:56:23.518Z,21.73
2019-05-10T22:58:52.787Z,21.53
2019-05-10T23:01:22.124Z,21.13
2019-05-10T23:03:51.453Z,21.03
2019-05-10T23:06:20.619Z,20.73
2019-05-10T23:08:49.883Z,19.43
2019-05-10T23:11:19.116Z,20.27
2019-05-10T23:13:48.391Z,18.60
2019-05-10T23:16:17.639Z,18.10
2019-05-10T23:18:46.815Z,17.33
2019-05-10T23:21:16.019Z,15.90
2019-05-10T23:23:45.267Z,17.63
2019-05-10T23:26:14.462Z,16.27
2019-05-10T23:28:43.963Z,15.00
2019-05-10T23:31:13.601Z,15.10
2019-05-10T23:33:42.907Z,14.20
2019-05-10T23:36:12.089Z,14.47
2019-05-10T23:38:41.276Z,13.87
2019-05-10T23:41:10.529Z,12.80
2019-05-10T23:43:39.777Z,12.10
2019-05-10T23:46:09.319Z,13.43
2019-05-10T23:48:38.563Z,13.37
2019-05-10T23:51:07.814Z,12.53
2019-05-10T23:53:37.707Z,13.03
2019-05-10T23:56:06.893Z,12.67
2019-05-10T23:58:36.529Z,13.07
